createdAt,value
2019-01-14T00:01:33.847Z,63.00
2019-01-14T00:04:03.439Z,58.52
2019-01-14T00:06:32.844Z,58.95
2019-01-14T00:09:02.266Z,62.93
2019-01-14T00:11:31.691Z,61.23
2019-01-14T00:14:01.104Z,58.15
2019-01-14T00:16:30.549Z,58.55
2019-01-14T00:18:59.955Z,60.55
2019-01-14T00:21:29.309Z,59.35
2019-01-14T00:23:58.688Z,60.50
2019-01-14T00:26:28.213Z,60.95
2019-01-14T00:28:57.555Z,61.35
2019-01-14T00:31:26.984Z,63.50
2019-01-14T00:33:56.400Z,60.38
2019-01-14T00:36:25.852Z,58.10
2019-01-14T00:38:55.235Z,58.52
2019-01-14T00:41:24.630Z,56.53
2019-01-14T00:43:53.925Z,53.00
2019-01-14T00:46:23.398Z,52.95
2019-01-14T00:48:52.716Z,62.25
2019-01-14T00:51:22.100Z,117.72
2019-01-14T00:53:51.762Z,65.20
2019-01-14T00:56:21.149Z,58.98
2019-01-14T00:58:50.449Z,57.25
2019-01-14T01:01:19.893Z,54.85
2019-01-14T01:03:49.267Z,48.87
2019-01-14T01:06:24.541Z,49.35
2019-01-14T01:08:48.299Z,47.73
2019-01-14T01:11:17.808Z,45.43
2019-01-14T01:13:47.951Z,44.95
2019-01-14T01:16:17.738Z,44.80
2019-01-14T01:18:47.259Z,46.28
2019-01-14T01:21:16.891Z,47.73
2019-01-14T01:23:46.470Z,44.63
2019-01-14T01:26:16.192Z,43.13
2019-01-14T01:28:45.876Z,46.85
2019-01-14T01:31:15.375Z,48.78
2019-01-14T01:33:44.992Z,60.05
2019-01-14T01:36:14.653Z,62.43
2019-01-14T01:38:44.236Z,61.98
2019-01-14T01:41:13.946Z,59.83
2019-01-14T01:43:43.331Z,58.50
2019-01-14T01:46:12.735Z,59.53
2019-01-14T01:48:42.366Z,59.75
2019-01-14T01:51:12.160Z,59.53
2019-01-14T01:53:41.675Z,54.45
2019-01-14T01:56:11.389Z,55.83
2019-01-14T01:58:41.028Z,56.05
2019-01-14T02:01:10.868Z,57.10
2019-01-14T02:03:40.788Z,58.73
2019-01-14T02:06:10.228Z,48.68
2019-01-14T02:08:39.596Z,48.78
2019-01-14T02:11:09.391Z,48.23
2019-01-14T02:13:38.968Z,46.33
2019-01-14T02:16:08.777Z,37.90
2019-01-14T02:18:38.453Z,34.13
2019-01-14T02:21:08.213Z,31.00
2019-01-14T02:23:38.022Z,33.75
2019-01-14T02:26:07.739Z,33.58
2019-01-14T02:28:37.194Z,29.67
2019-01-14T02:31:06.633Z,29.48
2019-01-14T02:33:36.464Z,29.90
2019-01-14T02:36:05.898Z,31.90
2019-01-14T02:38:35.452Z,31.55
2019-01-14T02:41:04.997Z,31.73
2019-01-14T02:43:34.563Z,30.92
2019-01-14T02:46:03.984Z,32.45
2019-01-14T02:48:33.535Z,33.40
2019-01-14T02:51:02.954Z,51.40
2019-01-14T02:53:32.728Z,44.27
2019-01-14T02:56:02.237Z,52.55
2019-01-14T02:58:31.898Z,52.10
2019-01-14T03:01:01.407Z,51.65
2019-01-14T03:03:31.792Z,52.75
2019-01-14T03:06:01.470Z,52.00
2019-01-14T03:08:31.166Z,54.80
2019-01-14T03:11:00.719Z,56.25
2019-01-14T03:13:30.143Z,52.93
2019-01-14T03:15:59.826Z,57.98
2019-01-14T03:18:29.519Z,54.50
2019-01-14T03:20:59.194Z,55.78
2019-01-14T03:23:28.922Z,57.00
2019-01-14T03:25:58.567Z,60.88
2019-01-14T03:28:27.918Z,61.73
2019-01-14T03:30:57.376Z,56.95
2019-01-14T03:33:27.181Z,51.53
2019-01-14T03:35:56.804Z,50.65
2019-01-14T03:38:26.674Z,48.35
2019-01-14T03:40:56.448Z,45.60
2019-01-14T03:43:25.951Z,43.85
2019-01-14T03:45:55.672Z,49.73
2019-01-14T03:48:26.377Z,49.88
2019-01-14T03:50:55.917Z,49.08
2019-01-14T03:53:25.633Z,48.63
2019-01-14T03:55:55.436Z,47.85
2019-01-14T03:58:25.158Z,50.00
2019-01-14T04:00:54.728Z,50.55
2019-01-14T04:03:24.494Z,54.75
2019-01-14T04:05:54.183Z,54.77
2019-01-14T04:08:23.827Z,50.55
2019-01-14T04:10:53.347Z,57.30
2019-01-14T04:13:22.808Z,58.80
2019-01-14T04:15:52.310Z,53.23
2019-01-14T04:18:21.854Z,51.92
2019-01-14T04:20:51.420Z,54.95
2019-01-14T04:23:21.091Z,51.92
2019-01-14T04:25:50.726Z,61.70
2019-01-14T04:28:20.451Z,44.27
2019-01-14T04:30:50.161Z,45.85
2019-01-14T04:33:19.936Z,37.30
2019-01-14T04:35:49.786Z,36.28
2019-01-14T04:38:19.399Z,35.48
2019-01-14T04:40:49.172Z,26.00
2019-01-14T04:43:18.710Z,26.90
2019-01-14T04:45:48.555Z,31.50
2019-01-14T04:48:18.031Z,26.93
2019-01-14T04:50:47.731Z,31.82
2019-01-14T04:53:17.396Z,27.22
2019-01-14T04:55:46.753Z,26.10
2019-01-14T04:58:17.120Z,28.40
2019-01-14T05:00:46.812Z,27.87
2019-01-14T05:03:16.711Z,29.95
2019-01-14T05:05:46.460Z,27.85
2019-01-14T05:08:15.962Z,23.83
2019-01-14T05:10:45.634Z,26.42
2019-01-14T05:13:15.306Z,31.02
2019-01-14T05:15:45.268Z,31.27
2019-01-14T05:18:14.757Z,29.75
2019-01-14T05:20:44.259Z,30.82
2019-01-14T05:23:13.841Z,28.80
2019-01-14T05:25:43.383Z,28.73
2019-01-14T05:28:12.898Z,29.90
2019-01-14T05:30:42.545Z,30.55
2019-01-14T05:33:12.252Z,30.80
2019-01-14T05:35:41.721Z,31.23
2019-01-14T05:38:11.311Z,31.90
2019-01-14T05:40:41.096Z,31.93
2019-01-14T05:43:10.642Z,33.28
2019-01-14T05:45:40.280Z,30.00
2019-01-14T05:48:10.023Z,26.93
2019-01-14T05:50:39.662Z,27.93
2019-01-14T05:53:09.518Z,26.70
2019-01-14T05:55:38.973Z,26.77
2019-01-14T05:58:08.694Z,23.92
2019-01-14T06:00:50.109Z,27.32
2019-01-14T06:03:19.692Z,27.42
2019-01-14T06:05:49.383Z,28.62
2019-01-14T06:08:20.445Z,28.75
2019-01-14T06:10:49.133Z,29.00
2019-01-14T06:13:18.780Z,41.15
2019-01-14T06:15:48.409Z,30.35
2019-01-14T06:18:18.124Z,32.80
2019-01-14T06:20:47.869Z,36.20
2019-01-14T06:23:17.665Z,138.65
2019-01-14T06:25:47.789Z,77.12
2019-01-14T06:28:17.267Z,54.13
2019-01-14T06:30:46.912Z,166.10
2019-01-14T06:33:16.420Z,128.12
2019-01-14T06:35:45.942Z,122.13
2019-01-14T06:38:16.470Z,71.57
2019-01-14T06:40:46.083Z,68.90
2019-01-14T06:43:15.784Z,115.67
2019-01-14T06:45:45.428Z,119.25
2019-01-14T06:48:14.999Z,114.50
2019-01-14T06:50:44.585Z,117.35
2019-01-14T06:53:14.387Z,119.10
2019-01-14T06:55:44.041Z,115.40
2019-01-14T06:58:13.532Z,116.20
2019-01-14T07:00:43.334Z,117.28
2019-01-14T07:03:13.044Z,67.92
2019-01-14T07:05:42.719Z,72.20
2019-01-14T07:08:12.222Z,70.57
2019-01-14T07:10:41.827Z,100.50
2019-01-14T07:13:12.342Z,87.55
2019-01-14T07:15:41.956Z,74.37
2019-01-14T07:18:11.421Z,82.75
2019-01-14T07:20:41.040Z,71.85
2019-01-14T07:23:10.674Z,76.77
2019-01-14T07:25:40.366Z,82.42
2019-01-14T07:28:09.829Z,83.55
2019-01-14T07:30:39.744Z,75.10
2019-01-14T07:33:09.354Z,74.37
2019-01-14T07:35:39.031Z,54.58
2019-01-14T07:38:08.963Z,56.92
2019-01-14T07:40:38.566Z,60.20
2019-01-14T07:43:08.333Z,100.05
2019-01-14T07:45:38.214Z,194.75
2019-01-14T07:48:07.868Z,187.07
2019-01-14T07:50:37.271Z,189.32
2019-01-14T07:53:07.272Z,167.75
2019-01-14T07:55:36.831Z,147.00
2019-01-14T07:58:06.375Z,120.57
2019-01-14T08:00:35.860Z,122.20
2019-01-14T08:03:05.369Z,132.85
2019-01-14T08:05:35.097Z,135.50
2019-01-14T08:08:04.875Z,134.90
2019-01-14T08:10:34.642Z,100.02
2019-01-14T08:13:04.091Z,30.02
2019-01-14T08:15:33.770Z,27.17
2019-01-14T08:18:04.972Z,25.95
2019-01-14T08:20:35.521Z,36.93
2019-01-14T08:23:07.992Z,32.25
2019-01-14T08:25:37.803Z,28.95
2019-01-14T08:28:08.161Z,28.77
2019-01-14T08:30:37.693Z,29.23
2019-01-14T08:33:07.756Z,28.67
2019-01-14T08:35:37.622Z,28.90
2019-01-14T08:38:07.411Z,30.15
2019-01-14T08:40:37.264Z,29.30
2019-01-14T08:43:06.866Z,28.62
2019-01-14T08:45:36.490Z,28.67
2019-01-14T08:48:06.170Z,29.07
2019-01-14T08:50:35.753Z,28.40
2019-01-14T08:53:05.141Z,29.27
2019-01-14T08:55:34.751Z,31.15
2019-01-14T08:58:06.909Z,34.58
2019-01-14T09:00:36.725Z,34.70
2019-01-14T09:03:06.212Z,35.38
2019-01-14T09:05:36.047Z,34.48
2019-01-14T09:08:05.647Z,34.65
2019-01-14T09:10:35.297Z,38.50
2019-01-14T09:13:04.787Z,37.17
2019-01-14T09:15:35.384Z,35.55
2019-01-14T09:18:05.005Z,42.60
2019-01-14T09:20:34.960Z,40.45
2019-01-14T09:23:04.798Z,39.10
2019-01-14T09:25:34.595Z,40.95
2019-01-14T09:28:04.122Z,36.60
2019-01-14T09:30:33.973Z,38.13
2019-01-14T09:33:03.259Z,37.80
2019-01-14T09:35:32.800Z,37.73
2019-01-14T09:38:02.280Z,38.10
2019-01-14T09:40:31.808Z,37.13
2019-01-14T09:43:01.275Z,36.35
2019-01-14T09:45:30.901Z,39.63
2019-01-14T09:48:00.539Z,36.88
2019-01-14T09:50:31.115Z,40.05
2019-01-14T09:53:00.723Z,44.63
2019-01-14T09:55:30.340Z,44.50
2019-01-14T09:58:00.048Z,46.50
2019-01-14T10:00:29.747Z,49.63
2019-01-14T10:02:59.547Z,48.50
2019-01-14T10:05:29.100Z,49.42
2019-01-14T10:07:58.718Z,65.45
2019-01-14T10:10:28.553Z,64.67
2019-01-14T10:12:58.365Z,64.90
2019-01-14T10:15:28.157Z,63.10
2019-01-14T10:18:00.311Z,69.65
2019-01-14T10:20:29.899Z,71.55
2019-01-14T10:22:59.564Z,65.52
2019-01-14T10:25:29.205Z,60.17
2019-01-14T10:27:58.719Z,60.20
2019-01-14T10:30:28.434Z,60.00
2019-01-14T10:32:57.995Z,55.65
2019-01-14T10:35:27.671Z,54.48
2019-01-14T10:37:57.289Z,53.83
2019-01-14T10:40:27.187Z,56.08
2019-01-14T10:42:57.021Z,57.70
2019-01-14T10:45:26.523Z,60.40
2019-01-14T10:47:57.568Z,57.27
2019-01-14T10:50:27.789Z,49.55
2019-01-14T10:52:57.386Z,43.92
2019-01-14T10:55:27.148Z,45.03
2019-01-14T10:57:57.384Z,43.17
2019-01-14T11:00:29.352Z,44.65
2019-01-14T11:02:59.532Z,43.85
2019-01-14T11:05:30.661Z,45.33
2019-01-14T11:08:00.283Z,49.50
2019-01-14T11:10:30.115Z,45.38
2019-01-14T11:12:59.770Z,43.17
2019-01-14T11:15:29.480Z,41.65
2019-01-14T11:17:59.029Z,42.30
2019-01-14T11:20:30.653Z,42.58
2019-01-14T11:23:01.069Z,41.00
2019-01-14T11:25:30.817Z,39.78
2019-01-14T11:28:00.466Z,39.90
2019-01-14T11:30:31.816Z,40.50
2019-01-14T11:33:01.343Z,38.35
2019-01-14T11:35:30.967Z,38.08
2019-01-14T11:38:00.466Z,38.25
2019-01-14T11:40:34.499Z,39.80
2019-01-14T11:43:04.199Z,38.20
2019-01-14T11:45:33.651Z,38.38
2019-01-14T11:48:03.305Z,37.35
2019-01-14T11:50:32.898Z,36.50
2019-01-14T11:53:02.348Z,34.48
2019-01-14T11:55:31.970Z,33.70
2019-01-14T11:58:01.407Z,34.20
2019-01-14T12:00:36.547Z,32.58
2019-01-14T12:03:00.771Z,33.35
2019-01-14T12:05:30.345Z,32.70
2019-01-14T12:08:00.068Z,28.70
2019-01-14T12:10:29.555Z,32.33
2019-01-14T12:12:59.169Z,33.88
2019-01-14T12:15:28.836Z,32.00
2019-01-14T12:17:59.802Z,38.33
2019-01-14T12:20:29.480Z,31.75
2019-01-14T12:22:59.240Z,34.30
2019-01-14T12:25:29.984Z,34.85
2019-01-14T12:27:59.588Z,33.92
2019-01-14T12:30:35.582Z,33.48
2019-01-14T12:33:05.341Z,32.42
2019-01-14T12:35:34.979Z,33.85
2019-01-14T12:38:04.483Z,31.00
2019-01-14T12:40:34.343Z,32.48
2019-01-14T12:43:03.897Z,31.57
2019-01-14T12:45:33.617Z,31.70
2019-01-14T12:48:03.164Z,35.03
2019-01-14T12:50:32.771Z,39.85
2019-01-14T12:53:02.357Z,32.83
2019-01-14T12:55:32.038Z,34.13
2019-01-14T12:58:01.654Z,33.13
2019-01-14T13:00:32.021Z,31.80
2019-01-14T13:03:02.127Z,34.35
2019-01-14T13:05:31.750Z,31.17
2019-01-14T13:08:01.466Z,32.17
2019-01-14T13:10:31.311Z,31.85
2019-01-14T13:13:01.117Z,31.87
2019-01-14T13:15:30.930Z,33.02
2019-01-14T13:18:05.242Z,32.70
2019-01-14T13:20:30.252Z,32.42
2019-01-14T13:22:59.980Z,31.15
2019-01-14T13:25:29.501Z,31.10
2019-01-14T13:27:59.096Z,33.18
2019-01-14T13:30:30.410Z,32.95
2019-01-14T13:33:00.531Z,34.15
2019-01-14T13:35:30.425Z,31.73
2019-01-14T13:38:00.374Z,20.88
2019-01-14T13:40:30.051Z,18.75
2019-01-14T13:42:59.717Z,17.82
2019-01-14T13:45:29.358Z,18.30
2019-01-14T13:47:59.056Z,23.47
2019-01-14T13:50:29.021Z,18.92
2019-01-14T13:52:58.779Z,19.05
2019-01-14T13:55:28.569Z,19.50
2019-01-14T13:58:00.171Z,18.92
2019-01-14T14:00:29.447Z,19.15
2019-01-14T14:02:59.159Z,20.62
2019-01-14T14:05:29.047Z,20.23
2019-01-14T14:07:58.718Z,20.70
2019-01-14T14:10:30.615Z,22.80
2019-01-14T14:13:00.474Z,22.40
2019-01-14T14:15:30.229Z,21.85
2019-01-14T14:18:00.179Z,22.20
2019-01-14T14:20:29.887Z,22.27
2019-01-14T14:22:59.702Z,21.82
2019-01-14T14:25:29.265Z,21.82
2019-01-14T14:27:59.077Z,22.00
2019-01-14T14:30:34.320Z,23.98
2019-01-14T14:33:03.894Z,24.07
2019-01-14T14:35:33.346Z,24.72
2019-01-14T14:38:02.865Z,23.65
2019-01-14T14:40:32.659Z,23.18
2019-01-14T14:43:02.300Z,23.45
2019-01-14T14:45:31.974Z,22.93
2019-01-14T14:48:01.640Z,23.07
2019-01-14T14:50:31.210Z,23.65
2019-01-14T14:53:01.036Z,23.85
2019-01-14T14:55:30.720Z,26.30
2019-01-14T14:58:00.506Z,24.57
2019-01-14T15:00:30.293Z,24.05
2019-01-14T15:03:00.119Z,23.18
2019-01-14T15:05:29.752Z,27.27
2019-01-14T15:07:59.749Z,28.10
2019-01-14T15:10:29.561Z,26.00
2019-01-14T15:12:59.417Z,26.57
2019-01-14T15:15:29.212Z,25.30
2019-01-14T15:17:59.033Z,25.10
2019-01-14T15:20:28.728Z,25.43
2019-01-14T15:23:00.191Z,25.97
2019-01-14T15:25:29.902Z,26.37
2019-01-14T15:27:59.468Z,22.73
2019-01-14T15:30:30.728Z,29.55
2019-01-14T15:33:00.489Z,21.68
2019-01-14T15:35:30.139Z,21.05
2019-01-14T15:37:59.839Z,22.17
2019-01-14T15:40:29.618Z,20.45
2019-01-14T15:42:59.270Z,18.73
2019-01-14T15:45:29.173Z,19.77
2019-01-14T15:47:58.884Z,20.23
2019-01-14T15:50:28.691Z,18.42
2019-01-14T15:52:58.422Z,19.07
2019-01-14T15:55:28.309Z,20.23
2019-01-14T15:57:58.088Z,22.93
2019-01-14T16:00:27.862Z,20.68
2019-01-14T16:02:57.503Z,23.12
2019-01-14T16:05:27.102Z,25.48
2019-01-14T16:07:56.910Z,26.82
2019-01-14T16:10:26.895Z,25.60
2019-01-14T16:12:56.439Z,24.87
2019-01-14T16:15:26.398Z,26.33
2019-01-14T16:17:56.140Z,29.52
2019-01-14T16:20:27.112Z,30.00
2019-01-14T17:00:34.835Z,68.10
2019-01-14T17:03:04.390Z,41.05
2019-01-14T17:05:35.520Z,42.53
2019-01-14T17:08:03.583Z,36.23
2019-01-14T17:10:33.217Z,35.03
2019-01-14T17:13:02.781Z,35.80
2019-01-14T17:15:32.655Z,36.00
2019-01-14T17:18:02.201Z,35.58
2019-01-14T17:20:32.010Z,34.65
2019-01-14T17:23:01.588Z,33.92
2019-01-14T17:25:31.363Z,31.62
2019-01-14T17:45:23.141Z,41.90
2019-01-14T17:47:52.966Z,44.25
2019-01-14T17:50:22.569Z,41.50
2019-01-14T17:52:52.203Z,45.52
2019-01-14T18:12:44.292Z,76.28
2019-01-14T18:15:14.511Z,68.07
2019-01-14T18:17:44.305Z,83.37
2019-01-14T18:20:16.140Z,67.82
2019-01-14T18:22:45.891Z,77.78
2019-01-14T18:25:15.864Z,74.03
2019-01-14T18:27:45.984Z,66.15
2019-01-14T18:30:18.505Z,63.70
2019-01-14T18:32:48.170Z,59.85
2019-01-14T18:35:17.852Z,68.80
2019-01-14T18:55:09.383Z,38.78
2019-01-14T18:57:40.015Z,47.58
2019-01-14T19:17:33.053Z,34.33
2019-01-14T19:20:03.838Z,33.95
2019-01-14T19:22:36.671Z,34.75
2019-01-14T19:25:09.943Z,29.42
2019-01-14T19:27:40.719Z,29.00
2019-01-14T19:30:13.185Z,29.72
2019-01-14T19:50:19.701Z,22.70
2019-01-14T19:52:50.318Z,14.38
2019-01-14T19:55:20.976Z,12.18
2019-01-14T19:57:51.248Z,12.60
2019-01-14T20:00:26.024Z,10.72
2019-01-14T20:02:57.837Z,10.82
2019-01-14T20:05:32.009Z,10.68
2019-01-14T20:25:24.630Z,8.33
2019-01-14T20:27:56.183Z,7.40
2019-01-14T20:59:41.688Z,16.55
2019-01-14T21:19:33.913Z,9.23
2019-01-14T21:22:03.633Z,9.53
2019-01-14T21:24:33.246Z,8.28
2019-01-14T21:27:02.731Z,8.88
2019-01-14T21:29:32.551Z,8.70
2019-01-14T21:49:23.711Z,7.00
2019-01-14T21:51:53.388Z,7.15
2019-01-14T21:54:22.880Z,6.83
2019-01-14T21:56:52.320Z,5.75
2019-01-14T22:16:43.486Z,5.10
2019-01-14T22:19:13.404Z,4.65
2019-01-14T22:21:43.110Z,5.03
2019-01-14T22:24:12.554Z,5.62
2019-01-14T22:26:42.051Z,4.10
2019-01-14T22:29:11.679Z,4.70
2019-01-14T22:49:02.325Z,4.42
2019-01-14T22:51:32.109Z,4.55
2019-01-14T22:54:01.504Z,4.83
2019-01-14T23:13:52.604Z,4.50
2019-01-14T23:16:22.003Z,5.30
2019-01-14T23:18:51.511Z,3.95
2019-01-14T23:21:21.008Z,4.45
2019-01-14T23:23:50.515Z,4.72
2019-01-14T23:43:41.796Z,3.92
